To NAV CANADA Home Page Login to a new session Search on AWWS site Feedback and Comments Disclaimer Vers la page française équivalente Tips FAQ What's new on the site To the Forecasts and Observations / NOTAM section To "File a Flight Plan" website Publications and other links Update of the User's profile FIC Telephone Numbers My Weather Data Folder Route Weather Data Regional Weather Data Local Weather Data To the Forecasts and Observations / NOTAM section
Request Generated 08/02/2015 at 02:15:41 UTC . Weather information available at that time is displayed.

METAR/TAF

FREDERICTON/FREDERICTON INTL/NB    (show WxCam)

SPECI CYFC 020214Z AUTO 21003KT 1/2SM R09/P6000FT/U FG FEW002 15/14
A2970 RMK SLP057 DENSITY ALT 300FT=
SPECI CYFC 020205Z AUTO 20004KT 3/8SM R09/3000VP6000FT/ FG FEW002
15/15 A2970 RMK SLP057 DENSITY ALT 300FT=
METAR CYFC 020200Z AUTO 22003KT 3/4SM R09/3000VP6000FT/ BR CLR 16/15
A2970 RMK SLP057 DENSITY ALT 400FT=
SPECI CYFC 020152Z AUTO 22003KT 1 3/4SM BR CLR 16/16 A2970 RMK VIS
VRB 5/8-3 SLP057 DENSITY ALT 400FT=
SPECI CYFC 020146Z AUTO 22003KT 2SM BR CLR 16/16 A2970 RMK SLP057
DENSITY ALT 400FT=
SPECI CYFC 020119Z AUTO VRB05KT 1/2SM R09/P6000FT/N FG FEW002 15/15
A2970 RMK SLP056 DENSITY ALT 300FT=
SPECI CYFC 020107Z AUTO 23002KT 3/8SM R09/4000VP6000FT/ FG FEW002
15/15 A2970 RMK SLP057 DENSITY ALT 300FT=
METAR CYFC 020100Z AUTO 22003KT 1/2SM R09/4000VP6000FT/ FG FEW002
15/15 A2970 RMK SLP056 DENSITY ALT 300FT=
SPECI CYFC 020050Z AUTO 23003KT 3/8SM R09/3000VP6000FT/ FG FEW002
15/15 A2970 RMK SLP056 DENSITY ALT 300FT=
SPECI CYFC 020036Z AUTO 22003KT 1 3/4SM BR CLR 16/16 A2969 RMK SLP054
DENSITY ALT 500FT=
SPECI CYFC 020035Z AUTO 21003KT 2 1/2SM BR CLR 17/16 A2969 RMK SLP053
DENSITY ALT 500FT=
SPECI CYFC 020034Z AUTO 21003KT 4SM BR CLR 17/16 A2969 RMK SLP053
DENSITY ALT 500FT=
METAR CYFC 020000Z AUTO 18004KT 9SM CLR 17/16 A2968 RMK SLP050
DENSITY ALT 500FT=

TAF AMD CYFC 020057Z 0200/0212 VRB03KT 1/2SM FG BKN002 TEMPO
0200/0210 2SM BR FEW002 FEW050
FM021000 23006KT 6SM BR FEW002 TEMPO 0210/0212 1SM BR
RMK FCST BASED ON AUTO OBS. NXT FCST BY 020600Z=
Your time UTC time
Weather data provided by Environment Canada and NAV CANADA